Time;durP1;ratioP1;P1;durP2;ratioP2;P2;SDS_P1;SDS_P2;PMS_P1;PMS_P2;Temp;Humidity;BMP_temperature;BMP_pressure;BME280_temperature;BME280_humidity;BME280_pressure;Samples;Min_cycle;Max_cycle;Signal;HPM_P1;HPM_P2
2021/12/02 00:01:06;;;;;;;15.20;8.40;;;;;;;;;;5034114;28;20420;-71
2021/12/02 00:03:35;;;;;;;12.77;8.13;;;;;;;;;;5035620;28;20907;-71
2021/12/02 00:06:02;;;;;;;9.23;6.10;;;;;;;;;;5035844;28;20429;-71
2021/12/02 00:08:28;;;;;;;10.60;7.57;;;;;;;;;;5034991;28;20908;-71
2021/12/02 00:10:55;;;;;;;8.93;6.40;;;;;;;;;;5034761;28;20468;-71
2021/12/02 00:13:25;;;;;;;10.97;6.93;;;;;;;;;;5035630;28;20425;-71
2021/12/02 00:16:06;;;;;;;12.77;9.37;;;;;;;;;;5033822;28;20496;-71
2021/12/02 00:21:18;;;;;;;8.20;5.97;;;;;;;;;;5035352;28;20487;-71
2021/12/02 00:24:03;;;;;;;11.23;7.33;;;;;;;;;;5035519;28;20909;-71
2021/12/02 00:26:31;;;;;;;14.27;9.60;;;;;;;;;;5035131;28;20429;-71
2021/12/02 00:28:58;;;;;;;10.97;7.50;;;;;;;;;;5035150;28;20421;-72
2021/12/02 00:31:28;;;;;;;10.47;7.33;;;;;;;;;;5034453;28;20955;-71
2021/12/02 00:33:57;;;;;;;7.67;5.83;;;;;;;;;;5034180;28;20446;-71
2021/12/02 00:36:24;;;;;;;10.03;7.70;;;;;;;;;;5033895;28;20905;-71
2021/12/02 00:38:51;;;;;;;10.60;6.60;;;;;;;;;;5034518;28;20457;-71
2021/12/02 00:41:18;;;;;;;7.57;5.97;;;;;;;;;;5033548;28;20896;-71
2021/12/02 00:43:45;;;;;;;7.93;5.33;;;;;;;;;;5034631;28;20449;-71
2021/12/02 00:46:13;;;;;;;9.80;7.03;;;;;;;;;;5034351;28;20540;-71
2021/12/02 00:48:42;;;;;;;5.33;3.87;;;;;;;;;;5033626;28;20422;-71
2021/12/02 00:51:08;;;;;;;7.33;5.33;;;;;;;;;;5033868;28;20434;-71
2021/12/02 00:53:37;;;;;;;6.10;4.17;;;;;;;;;;5034981;28;20437;-71
2021/12/02 00:56:04;;;;;;;4.27;3.20;;;;;;;;;;5033119;28;20426;-71
2021/12/02 00:58:32;;;;;;;4.83;3.30;;;;;;;;;;5032937;28;20436;-71
2021/12/02 01:45:00;;;;;;;1.73;0.53;;;;;;;;;;5033606;28;20951;-71
2021/12/02 01:51:26;;;;;;;1.63;0.90;;;;;;;;;;5033501;28;20797;-71
2021/12/02 01:53:54;;;;;;;1.33;0.70;;;;;;;;;;5032478;28;20557;-70
2021/12/02 01:56:21;;;;;;;1.97;0.70;;;;;;;;;;5016461;28;20438;-70
2021/12/02 01:58:48;;;;;;;0.70;0.67;;;;;;;;;;5016032;28;20777;-70
2021/12/02 02:01:22;;;;;;;2.37;0.50;;;;;;;;;;5032609;28;20440;-70
2021/12/02 02:03:50;;;;;;;0.70;0.40;;;;;;;;;;5033195;28;20441;-70
2021/12/02 02:06:19;;;;;;;1.03;0.40;;;;;;;;;;5033198;28;20441;-70
2021/12/02 02:08:46;;;;;;;0.23;0.23;;;;;;;;;;5016285;28;20438;-70
2021/12/02 02:11:12;;;;;;;1.60;0.60;;;;;;;;;;5032329;28;20488;-70
2021/12/02 02:13:42;;;;;;;0.63;0.47;;;;;;;;;;5033482;28;20773;-70
2021/12/02 02:16:09;;;;;;;1.93;0.80;;;;;;;;;;5033186;28;20430;-70
2021/12/02 02:18:35;;;;;;;0.30;0.30;;;;;;;;;;5032249;28;20476;-70
2021/12/02 02:21:03;;;;;;;1.57;0.37;;;;;;;;;;5033940;28;20484;-70
2021/12/02 02:23:31;;;;;;;0.80;0.33;;;;;;;;;;5032416;28;20537;-70
2021/12/02 02:25:58;;;;;;;1.33;0.30;;;;;;;;;;5034036;28;20425;-70
2021/12/02 02:28:25;;;;;;;4.93;0.47;;;;;;;;;;5037154;28;20909;-70
2021/12/02 02:30:51;;;;;;;2.73;0.30;;;;;;;;;;5035908;28;20437;-70
2021/12/02 02:33:20;;;;;;;0.73;0.47;;;;;;;;;;5019609;28;20473;-70
2021/12/02 02:35:47;;;;;;;0.37;0.20;;;;;;;;;;5036004;28;20560;-70
2021/12/02 02:38:14;;;;;;;1.70;0.50;;;;;;;;;;5037804;28;20849;-70
2021/12/02 02:40:43;;;;;;;0.80;0.40;;;;;;;;;;5003170;28;20845;-70
2021/12/02 02:43:11;;;;;;;1.63;0.43;;;;;;;;;;5036274;28;20796;-70
2021/12/02 02:45:38;;;;;;;0.30;0.30;;;;;;;;;;5019235;28;20426;-70
2021/12/02 02:48:05;;;;;;;0.20;0.20;;;;;;;;;;5035378;28;20430;-70
2021/12/02 02:50:31;;;;;;;1.87;0.57;;;;;;;;;;5036514;28;20414;-70
2021/12/02 02:53:02;;;;;;;0.70;0.23;;;;;;;;;;5036447;28;20421;-70
2021/12/02 02:55:29;;;;;;;0.43;0.30;;;;;;;;;;5036401;28;20446;-70
2021/12/02 02:59:00;;;;;;;1.00;0.60;;;;;;;;;;5036607;28;20464;-70
2021/12/02 03:01:02;;;;;;;0.57;0.40;;;;;;;;;;5040177;28;20434;-70
2021/12/02 03:06:13;;;;;;;0.93;0.40;;;;;;;;;;5035406;28;20403;-70
2021/12/02 03:08:48;;;;;;;0.23;0.20;;;;;;;;;;5035200;28;20398;-70
2021/12/02 03:11:16;;;;;;;2.53;0.60;;;;;;;;;;5019721;28;20401;-70
2021/12/02 03:13:50;;;;;;;1.10;0.40;;;;;;;;;;5037124;28;20415;-70
2021/12/02 03:19:03;;;;;;;0.60;0.40;;;;;;;;;;5035209;28;20505;-69
2021/12/02 03:21:30;;;;;;;1.47;0.43;;;;;;;;;;5035944;28;20410;-70
2021/12/02 03:23:57;;;;;;;1.50;0.27;;;;;;;;;;5035235;28;20525;-70
2021/12/02 03:26:24;;;;;;;0.53;0.37;;;;;;;;;;5035149;28;20438;-70
2021/12/02 03:28:50;;;;;;;0.47;0.20;;;;;;;;;;5034804;28;20434;-70
2021/12/02 03:31:17;;;;;;;0.47;0.20;;;;;;;;;;5036543;28;20800;-70
2021/12/02 03:33:44;;;;;;;1.00;0.40;;;;;;;;;;5035636;28;20756;-70
2021/12/02 03:36:11;;;;;;;0.83;0.40;;;;;;;;;;5035735;28;20211;-70
2021/12/02 03:38:37;;;;;;;0.17;0.17;;;;;;;;;;5034417;28;20437;-69
2021/12/02 03:41:04;;;;;;;0.77;0.53;;;;;;;;;;5035550;28;20430;-70
2021/12/02 03:43:37;;;;;;;0.60;0.30;;;;;;;;;;5036082;28;20502;-69
2021/12/02 03:46:04;;;;;;;1.23;0.40;;;;;;;;;;5018100;28;20429;-70
2021/12/02 03:48:31;;;;;;;1.00;0.30;;;;;;;;;;5017905;28;20415;-69
2021/12/02 03:50:58;;;;;;;0.60;0.40;;;;;;;;;;5034703;28;20559;-70
2021/12/02 03:53:24;;;;;;;1.40;0.20;;;;;;;;;;5035396;28;20414;-69
2021/12/02 03:55:51;;;;;;;0.40;0.30;;;;;;;;;;5034128;28;20801;-70
2021/12/02 03:58:17;;;;;;;0.30;0.20;;;;;;;;;;5035227;28;20978;-69
2021/12/02 04:00:44;;;;;;;0.47;0.20;;;;;;;;;;5034254;28;20422;-69
2021/12/02 04:03:10;;;;;;;0.70;0.30;;;;;;;;;;5035123;28;20445;-70
2021/12/02 04:05:37;;;;;;;1.20;0.57;;;;;;;;;;5034101;28;20533;-69
2021/12/02 04:08:04;;;;;;;2.10;0.40;;;;;;;;;;5035307;28;20415;-69
2021/12/02 04:10:32;;;;;;;0.90;0.50;;;;;;;;;;5033875;28;20421;-69
2021/12/02 04:13:05;;;;;;;0.80;0.40;;;;;;;;;;5034105;28;20426;-69
2021/12/02 04:15:36;;;;;;;0.83;0.50;;;;;;;;;;5034294;28;20476;-67
2021/12/02 04:18:02;;;;;;;1.70;0.50;;;;;;;;;;5033891;28;20924;-70
2021/12/02 04:20:29;;;;;;;0.87;0.43;;;;;;;;;;5034671;28;20438;-70
2021/12/02 04:22:56;;;;;;;1.43;0.33;;;;;;;;;;5034282;28;20793;-69
2021/12/02 04:25:23;;;;;;;0.30;0.30;;;;;;;;;;5000512;28;20929;-70
2021/12/02 04:27:50;;;;;;;1.13;0.30;;;;;;;;;;5034198;28;20426;-69
2021/12/02 04:30:18;;;;;;;2.20;0.23;;;;;;;;;;5016829;28;20495;-70
2021/12/02 04:32:44;;;;;;;0.20;0.20;;;;;;;;;;5016900;28;20844;-67
2021/12/02 04:35:11;;;;;;;0.13;0.10;;;;;;;;;;5034150;28;20504;-68
2021/12/02 04:37:39;;;;;;;0.00;0.00;;;;;;;;;;5023853;28;20492;-67
2021/12/02 04:40:06;;;;;;;0.60;0.30;;;;;;;;;;5018830;28;20825;-68
2021/12/02 04:42:33;;;;;;;0.40;0.20;;;;;;;;;;5053209;28;20426;-68
2021/12/02 04:45:00;;;;;;;0.30;0.20;;;;;;;;;;5035770;28;20434;-67
2021/12/02 04:47:27;;;;;;;0.10;0.10;;;;;;;;;;5032269;28;20533;-67
2021/12/02 04:49:54;;;;;;;0.10;0.10;;;;;;;;;;5033444;28;20426;-67
2021/12/02 04:52:21;;;;;;;0.00;0.00;;;;;;;;;;5016571;28;20909;-67
2021/12/02 04:54:47;;;;;;;0.10;0.10;;;;;;;;;;5032690;28;20460;-67
2021/12/02 04:57:14;;;;;;;0.20;0.20;;;;;;;;;;5016267;28;20490;-67
2021/12/02 04:59:41;;;;;;;0.10;0.00;;;;;;;;;;5027984;28;20434;-67
2021/12/02 05:02:07;;;;;;;0.53;0.03;;;;;;;;;;5032524;28;20431;-68
2021/12/02 05:04:34;;;;;;;2.77;0.20;;;;;;;;;;5040754;28;20435;-67
2021/12/02 05:07:01;;;;;;;0.30;0.10;;;;;;;;;;5052805;28;20446;-66
2021/12/02 05:09:28;;;;;;;0.83;0.37;;;;;;;;;;5035961;28;20436;-66
2021/12/02 05:11:55;;;;;;;0.40;0.40;;;;;;;;;;5053397;28;20429;-66
2021/12/02 05:14:21;;;;;;;0.37;0.20;;;;;;;;;;5019369;28;20926;-66
2021/12/02 05:16:48;;;;;;;0.10;0.10;;;;;;;;;;5031314;28;20858;-67
2021/12/02 05:19:16;;;;;;;0.50;0.30;;;;;;;;;;5016167;28;20437;-66
2021/12/02 05:21:43;;;;;;;0.20;0.13;;;;;;;;;;5041495;28;20432;-67
2021/12/02 05:24:10;;;;;;;0.17;0.10;;;;;;;;;;5035127;28;20534;-66
2021/12/02 05:26:37;;;;;;;0.50;0.30;;;;;;;;;;5053756;28;20433;-66
2021/12/02 05:29:03;;;;;;;2.07;0.40;;;;;;;;;;5052848;28;20409;-67
2021/12/02 05:31:30;;;;;;;0.37;0.30;;;;;;;;;;5052107;28;20449;-66
2021/12/02 05:33:57;;;;;;;0.37;0.20;;;;;;;;;;5034091;28;20449;-66
2021/12/02 05:36:24;;;;;;;0.50;0.20;;;;;;;;;;5035389;28;20457;-66
2021/12/02 05:38:51;;;;;;;0.37;0.27;;;;;;;;;;5035445;28;20423;-66
2021/12/02 05:41:18;;;;;;;0.63;0.40;;;;;;;;;;5052392;28;20417;-66
2021/12/02 05:43:45;;;;;;;0.43;0.40;;;;;;;;;;5051499;28;20788;-67
2021/12/02 05:46:12;;;;;;;1.80;0.37;;;;;;;;;;5051531;28;20460;-68
2021/12/02 05:48:40;;;;;;;1.47;0.33;;;;;;;;;;5035881;28;20459;-67
2021/12/02 05:51:07;;;;;;;0.40;0.20;;;;;;;;;;5051873;28;20456;-66
2021/12/02 05:53:37;;;;;;;0.30;0.27;;;;;;;;;;5052322;28;20928;-66
2021/12/02 05:56:03;;;;;;;0.33;0.10;;;;;;;;;;5052841;28;20461;-66
2021/12/02 05:58:30;;;;;;;0.83;0.53;;;;;;;;;;5052082;28;20422;-66
2021/12/02 06:00:57;;;;;;;2.00;0.70;;;;;;;;;;5056603;28;20436;-66
2021/12/02 06:03:24;;;;;;;0.93;0.20;;;;;;;;;;5056712;28;20422;-67
2021/12/02 06:05:55;;;;;;;1.17;0.30;;;;;;;;;;5057125;28;20408;-67
2021/12/02 06:08:22;;;;;;;0.97;0.33;;;;;;;;;;5056649;28;20807;-67
2021/12/02 06:10:49;;;;;;;0.40;0.30;;;;;;;;;;5037214;28;20833;-66
2021/12/02 06:13:16;;;;;;;3.13;1.73;;;;;;;;;;5036927;28;20414;-66
2021/12/02 06:15:44;;;;;;;0.93;0.53;;;;;;;;;;5036433;28;21038;-66
2021/12/02 06:18:10;;;;;;;1.20;0.30;;;;;;;;;;5036802;28;20425;-67
2021/12/02 06:20:39;;;;;;;1.00;0.30;;;;;;;;;;5035496;28;20438;-67
2021/12/02 06:23:06;;;;;;;1.07;0.33;;;;;;;;;;5043675;28;20435;-66
2021/12/02 06:28:03;;;;;;;0.10;0.10;;;;;;;;;;5055561;28;20435;-66
2021/12/02 06:30:31;;;;;;;0.80;0.40;;;;;;;;;;5055330;28;20408;-66
2021/12/02 06:32:57;;;;;;;1.23;0.40;;;;;;;;;;5039143;28;20436;-67
2021/12/02 06:35:24;;;;;;;0.63;0.37;;;;;;;;;;5056976;28;20971;-67
2021/12/02 06:37:52;;;;;;;1.50;0.50;;;;;;;;;;5056664;28;20437;-68
2021/12/02 06:40:19;;;;;;;0.70;0.50;;;;;;;;;;5055439;28;20484;-67
2021/12/02 06:42:45;;;;;;;1.27;0.70;;;;;;;;;;5056672;28;20425;-65
2021/12/02 06:45:12;;;;;;;2.27;0.43;;;;;;;;;;5056840;28;20458;-68
2021/12/02 06:47:44;;;;;;;1.43;0.63;;;;;;;;;;5055766;28;20448;-69
2021/12/02 06:50:13;;;;;;;0.97;0.60;;;;;;;;;;5056498;28;20429;-68
2021/12/02 06:52:41;;;;;;;1.00;0.67;;;;;;;;;;5056113;28;20839;-68
2021/12/02 06:55:08;;;;;;;1.03;0.33;;;;;;;;;;5056310;28;20423;-68
2021/12/02 06:57:35;;;;;;;0.73;0.50;;;;;;;;;;5056392;28;20439;-68
2021/12/02 07:07:08;;;;;;;2.60;0.60;;;;;;;;;;5055200;28;20429;-68
2021/12/02 07:09:35;;;;;;;1.23;0.50;;;;;;;;;;5055562;28;20418;-68
2021/12/02 07:12:03;;;;;;;0.83;0.50;;;;;;;;;;5054303;28;20449;-68
2021/12/02 07:14:30;;;;;;;2.77;0.60;;;;;;;;;;5053898;28;20425;-68
2021/12/02 07:16:57;;;;;;;2.13;0.60;;;;;;;;;;5054483;28;20456;-68
2021/12/02 07:19:25;;;;;;;3.57;0.97;;;;;;;;;;5036940;28;20426;-68
2021/12/02 07:25:52;;;;;;;2.37;0.90;;;;;;;;;;5056079;28;20827;-68
2021/12/02 07:28:19;;;;;;;2.53;0.80;;;;;;;;;;5055790;28;20425;-68
2021/12/02 07:30:55;;;;;;;0.70;0.40;;;;;;;;;;5056300;28;20436;-68
2021/12/02 07:33:22;;;;;;;1.17;0.73;;;;;;;;;;5055742;28;20389;-68
2021/12/02 07:35:49;;;;;;;2.13;0.57;;;;;;;;;;5056083;28;20850;-68
2021/12/02 07:38:16;;;;;;;1.07;0.60;;;;;;;;;;5055632;28;20429;-68
2021/12/02 07:40:43;;;;;;;0.80;0.50;;;;;;;;;;5056495;28;20445;-68
2021/12/02 07:43:09;;;;;;;3.33;0.87;;;;;;;;;;5055181;28;20760;-69
2021/12/02 07:45:36;;;;;;;0.93;0.60;;;;;;;;;;5054273;28;20429;-69
2021/12/02 07:48:04;;;;;;;0.93;0.50;;;;;;;;;;5055442;28;20496;-68
2021/12/02 07:50:31;;;;;;;1.67;1.17;;;;;;;;;;5056031;28;20439;-68
2021/12/02 07:53:01;;;;;;;0.90;0.60;;;;;;;;;;5055013;28;20425;-69
2021/12/02 07:55:28;;;;;;;0.73;0.40;;;;;;;;;;5055982;28;20468;-69
2021/12/02 07:57:56;;;;;;;2.13;0.83;;;;;;;;;;5054040;28;20918;-68
2021/12/02 08:00:24;;;;;;;0.90;0.53;;;;;;;;;;5054133;28;20519;-69
2021/12/02 08:02:51;;;;;;;1.30;0.67;;;;;;;;;;5054908;28;20413;-69
2021/12/02 08:05:21;;;;;;;1.13;0.60;;;;;;;;;;5053199;28;20516;-69
2021/12/02 08:07:47;;;;;;;2.70;0.50;;;;;;;;;;5053281;28;20907;-69
2021/12/02 08:10:14;;;;;;;0.97;0.50;;;;;;;;;;5053192;28;20487;-69
2021/12/02 08:12:46;;;;;;;1.00;0.40;;;;;;;;;;5053627;28;20842;-69
2021/12/02 08:15:14;;;;;;;1.17;0.77;;;;;;;;;;5055709;28;20382;-69
2021/12/02 08:21:34;;;;;;;1.13;0.67;;;;;;;;;;5055045;28;20420;-69
2021/12/02 08:24:01;;;;;;;1.47;0.80;;;;;;;;;;5055242;28;20832;-69
2021/12/02 08:26:29;;;;;;;1.33;0.70;;;;;;;;;;5055264;28;20455;-69
2021/12/02 08:28:56;;;;;;;0.57;0.57;;;;;;;;;;5053773;28;20421;-69
2021/12/02 08:31:23;;;;;;;1.07;0.60;;;;;;;;;;5053552;28;20433;-69
2021/12/02 08:33:51;;;;;;;2.03;0.50;;;;;;;;;;5054538;28;20837;-69
2021/12/02 08:36:21;;;;;;;1.23;0.60;;;;;;;;;;5054403;28;20457;-69
2021/12/02 08:42:53;;;;;;;3.00;1.40;;;;;;;;;;5051162;28;20547;-69
2021/12/02 08:45:45;;;;;;;1.17;0.50;;;;;;;;;;5052575;28;20431;-69
2021/12/02 08:48:12;;;;;;;2.20;0.63;;;;;;;;;;5054384;28;20452;-69
2021/12/02 08:51:00;;;;;;;2.13;0.63;;;;;;;;;;5035113;28;20777;-69
2021/12/02 08:53:27;;;;;;;1.30;0.77;;;;;;;;;;5053090;28;20500;-69
2021/12/02 08:55:54;;;;;;;0.33;0.33;;;;;;;;;;5052856;28;20465;-69
2021/12/02 08:58:20;;;;;;;4.00;0.90;;;;;;;;;;5053773;28;20443;-69
2021/12/02 09:04:50;;;;;;;1.30;0.50;;;;;;;;;;5054043;28;20420;-68
2021/12/02 09:07:16;;;;;;;2.00;0.90;;;;;;;;;;5036468;28;20472;-68
2021/12/02 09:09:43;;;;;;;0.87;0.80;;;;;;;;;;5054419;28;20908;-69
2021/12/02 09:12:10;;;;;;;1.87;0.60;;;;;;;;;;5052865;28;20433;-69
2021/12/02 09:18:36;;;;;;;1.57;0.90;;;;;;;;;;5053845;28;20385;-68
2021/12/02 09:25:04;;;;;;;1.90;0.60;;;;;;;;;;5053975;28;20352;-69
2021/12/02 09:27:31;;;;;;;1.13;0.47;;;;;;;;;;5053199;28;20425;-69
2021/12/02 09:29:58;;;;;;;0.73;0.43;;;;;;;;;;5052928;28;20425;-68
2021/12/02 09:35:35;;;;;;;2.47;0.40;;;;;;;;;;5051697;28;20407;-68
2021/12/02 09:38:02;;;;;;;2.87;1.13;;;;;;;;;;5052424;28;20409;-68
2021/12/02 09:40:29;;;;;;;0.40;0.30;;;;;;;;;;5053710;28;20477;-68
2021/12/02 09:46:48;;;;;;;0.87;0.60;;;;;;;;;;5053506;28;20364;-68
2021/12/02 09:49:16;;;;;;;1.37;0.67;;;;;;;;;;5053650;28;20525;-68
2021/12/02 09:54:26;;;;;;;0.33;0.30;;;;;;;;;;5053954;28;20396;-68
2021/12/02 10:00:54;;;;;;;0.50;0.50;;;;;;;;;;5053432;28;20479;-68
2021/12/02 10:07:46;;;;;;;4.03;0.60;;;;;;;;;;5053608;28;20705;-68
2021/12/02 10:12:40;;;;;;;1.10;0.40;;;;;;;;;;5053579;28;20507;-68
2021/12/02 10:15:30;;;;;;;0.97;0.40;;;;;;;;;;5051995;28;20845;-69
2021/12/02 10:18:07;;;;;;;0.70;0.43;;;;;;;;;;5052186;28;20470;-68
2021/12/02 10:20:38;;;;;;;0.50;0.30;;;;;;;;;;5050657;28;20449;-69
2021/12/02 10:23:43;;;;;;;0.50;0.40;;;;;;;;;;5051923;28;20517;-68
2021/12/02 10:26:00;;;;;;;1.03;0.50;;;;;;;;;;5052240;28;20429;-68
2021/12/02 10:32:25;;;;;;;1.73;0.30;;;;;;;;;;5053115;28;20423;-68
2021/12/02 10:34:53;;;;;;;1.73;0.33;;;;;;;;;;5052378;28;20520;-68
2021/12/02 10:37:21;;;;;;;0.47;0.33;;;;;;;;;;5051773;28;20478;-68
2021/12/02 10:40:07;;;;;;;0.40;0.37;;;;;;;;;;5051873;28;20614;-68
2021/12/02 10:42:38;;;;;;;0.30;0.30;;;;;;;;;;5052566;28;20450;-68
2021/12/02 10:45:07;;;;;;;2.03;0.77;;;;;;;;;;5053399;28;20434;-68
2021/12/02 10:47:35;;;;;;;1.17;0.50;;;;;;;;;;5054534;28;20459;-69
2021/12/02 10:50:08;;;;;;;0.50;0.30;;;;;;;;;;5055691;28;20417;-68
2021/12/02 11:01:04;;;;;;;2.17;0.60;;;;;;;;;;5054885;28;20431;-68
2021/12/02 11:03:31;;;;;;;0.40;0.30;;;;;;;;;;5055049;28;20409;-69
2021/12/02 11:09:52;;;;;;;0.57;0.57;;;;;;;;;;5056238;28;20947;-68
2021/12/02 11:12:20;;;;;;;0.30;0.30;;;;;;;;;;5056688;28;20426;-68
2021/12/02 11:14:52;;;;;;;1.47;0.50;;;;;;;;;;5055294;28;20493;-68
2021/12/02 11:17:18;;;;;;;0.30;0.30;;;;;;;;;;5056837;28;20483;-68
2021/12/02 11:19:48;;;;;;;1.33;0.50;;;;;;;;;;5055331;28;20432;-68
2021/12/02 11:22:19;;;;;;;1.43;0.50;;;;;;;;;;5054661;28;20513;-68
2021/12/02 11:24:47;;;;;;;1.90;0.90;;;;;;;;;;5056406;28;20448;-68
2021/12/02 11:27:39;;;;;;;0.77;0.30;;;;;;;;;;5055462;28;20425;-68
2021/12/02 11:30:09;;;;;;;0.60;0.40;;;;;;;;;;5056076;28;20477;-68
2021/12/02 11:33:00;;;;;;;0.40;0.30;;;;;;;;;;5056006;28;20448;-68
2021/12/02 11:39:04;;;;;;;0.63;0.50;;;;;;;;;;5054265;28;20430;-68
2021/12/02 11:41:31;;;;;;;1.10;0.70;;;;;;;;;;5053981;28;20457;-68
2021/12/02 11:48:03;;;;;;;1.10;0.50;;;;;;;;;;5055621;28;20405;-67
2021/12/02 11:50:30;;;;;;;0.70;0.50;;;;;;;;;;5054374;28;20429;-68
2021/12/02 11:52:57;;;;;;;1.20;0.50;;;;;;;;;;5055081;28;20436;-68
2021/12/02 11:55:25;;;;;;;0.83;0.60;;;;;;;;;;5055303;28;20421;-68
2021/12/02 11:57:52;;;;;;;2.60;0.40;;;;;;;;;;5055487;28;20450;-68
2021/12/02 12:00:20;;;;;;;1.33;0.70;;;;;;;;;;5055240;28;20417;-68
2021/12/02 12:02:53;;;;;;;0.50;0.30;;;;;;;;;;5056278;28;20437;-68
2021/12/02 12:05:22;;;;;;;1.00;0.60;;;;;;;;;;5054355;28;20407;-68
2021/12/02 12:07:48;;;;;;;0.77;0.40;;;;;;;;;;5053960;28;20908;-68
2021/12/02 12:10:18;;;;;;;1.70;0.30;;;;;;;;;;5046461;28;20426;-68
2021/12/02 12:12:56;;;;;;;1.00;0.70;;;;;;;;;;5049573;28;20772;-67
2021/12/02 12:15:29;;;;;;;1.27;0.60;;;;;;;;;;5049797;28;20903;-66
2021/12/02 12:21:09;;;;;;;2.20;0.40;;;;;;;;;;5050233;28;20427;-67
2021/12/02 12:23:37;;;;;;;0.93;0.50;;;;;;;;;;5049897;28;20432;-69
2021/12/02 12:26:11;;;;;;;2.40;0.90;;;;;;;;;;5051871;28;20437;-67
2021/12/02 12:29:04;;;;;;;1.30;0.80;;;;;;;;;;5036109;28;20429;-66
2021/12/02 12:31:31;;;;;;;1.20;0.70;;;;;;;;;;5051921;28;20445;-66
2021/12/02 12:34:00;;;;;;;2.23;0.87;;;;;;;;;;5051669;28;20528;-68
2021/12/02 12:36:39;;;;;;;3.60;0.97;;;;;;;;;;5034956;28;20884;-67
2021/12/02 12:39:23;;;;;;;1.70;0.93;;;;;;;;;;5034516;28;20799;-67
2021/12/02 12:42:15;;;;;;;2.23;0.90;;;;;;;;;;5050000;28;20527;-67
2021/12/02 12:44:50;;;;;;;2.00;1.33;;;;;;;;;;5050502;28;20470;-68
2021/12/02 12:47:17;;;;;;;1.83;0.80;;;;;;;;;;5052664;28;20520;-67
2021/12/02 12:49:46;;;;;;;2.20;1.17;;;;;;;;;;5051591;28;20942;-66
2021/12/02 12:52:48;;;;;;;1.67;0.97;;;;;;;;;;5035164;28;20450;-66
2021/12/02 12:55:15;;;;;;;1.17;0.63;;;;;;;;;;5047037;28;20504;-65
2021/12/02 13:01:20;;;;;;;1.80;0.90;;;;;;;;;;5047362;28;20512;-67
2021/12/02 13:07:06;;;;;;;1.47;0.90;;;;;;;;;;5049004;28;20441;-68
2021/12/02 13:09:43;;;;;;;1.23;0.70;;;;;;;;;;5050499;28;20422;-67
2021/12/02 13:12:12;;;;;;;1.77;0.60;;;;;;;;;;5050421;28;20421;-67
2021/12/02 13:14:39;;;;;;;2.33;1.00;;;;;;;;;;5034767;28;20460;-67
2021/12/02 13:17:25;;;;;;;0.80;0.60;;;;;;;;;;5032962;28;20470;-67
2021/12/02 13:19:58;;;;;;;0.87;0.47;;;;;;;;;;5051192;28;20440;-66
2021/12/02 13:22:28;;;;;;;0.70;0.40;;;;;;;;;;5047291;28;20448;-66
2021/12/02 13:24:55;;;;;;;2.03;0.80;;;;;;;;;;5034287;28;20504;-67
2021/12/02 13:27:22;;;;;;;1.53;0.93;;;;;;;;;;5034854;28;20420;-68
2021/12/02 13:29:52;;;;;;;1.67;0.60;;;;;;;;;;5051825;28;20529;-69
2021/12/02 13:32:21;;;;;;;0.63;0.43;;;;;;;;;;5034926;28;20422;-68
2021/12/02 13:34:48;;;;;;;2.73;1.23;;;;;;;;;;5050317;28;20452;-67
2021/12/02 13:37:17;;;;;;;1.87;0.77;;;;;;;;;;5034714;28;20515;-67
2021/12/02 13:43:14;;;;;;;1.00;0.73;;;;;;;;;;5051638;28;20461;-67
2021/12/02 13:45:41;;;;;;;0.83;0.40;;;;;;;;;;5033513;28;20442;-69
2021/12/02 13:48:18;;;;;;;0.60;0.60;;;;;;;;;;5049421;28;20437;-72
2021/12/02 13:50:51;;;;;;;1.23;0.73;;;;;;;;;;5048197;28;20455;-72
2021/12/02 13:53:18;;;;;;;0.60;0.50;;;;;;;;;;5051511;28;20907;-72
2021/12/02 13:55:49;;;;;;;0.60;0.50;;;;;;;;;;5049376;28;20464;-73
2021/12/02 13:58:27;;;;;;;1.43;0.70;;;;;;;;;;5050892;28;20473;-73
2021/12/02 14:00:59;;;;;;;2.43;0.60;;;;;;;;;;5035318;28;20438;-71
2021/12/02 14:03:28;;;;;;;2.80;0.67;;;;;;;;;;5051251;28;20520;-72
2021/12/02 14:06:02;;;;;;;1.30;0.90;;;;;;;;;;5049290;28;21409;-72
2021/12/02 14:08:29;;;;;;;3.10;1.10;;;;;;;;;;5051631;28;20413;-72
2021/12/02 14:10:56;;;;;;;1.67;0.67;;;;;;;;;;5052614;28;20987;-72
2021/12/02 14:16:56;;;;;;;2.50;1.10;;;;;;;;;;5039141;28;20459;-72
2021/12/02 14:22:58;;;;;;;1.53;0.73;;;;;;;;;;5057946;28;20753;-72
2021/12/02 14:29:00;;;;;;;2.07;1.13;;;;;;;;;;5054710;28;20510;-72
2021/12/02 14:31:29;;;;;;;1.00;0.90;;;;;;;;;;5054562;28;20409;-72
2021/12/02 14:34:04;;;;;;;2.73;1.53;;;;;;;;;;5055300;28;20428;-72
2021/12/02 14:36:47;;;;;;;2.10;1.33;;;;;;;;;;5054901;28;20429;-69
2021/12/02 14:39:16;;;;;;;2.93;1.43;;;;;;;;;;5050812;28;21025;-70
2021/12/02 14:41:45;;;;;;;3.80;1.90;;;;;;;;;;5035912;28;20551;-71
2021/12/02 14:44:15;;;;;;;1.03;0.80;;;;;;;;;;5050958;28;20446;-68
2021/12/02 14:46:46;;;;;;;1.63;1.10;;;;;;;;;;5050865;28;20459;-68
2021/12/02 14:49:14;;;;;;;1.90;1.23;;;;;;;;;;5051712;28;20428;-69
2021/12/02 14:52:01;;;;;;;2.10;1.07;;;;;;;;;;5033617;28;20480;-69
2021/12/02 14:54:38;;;;;;;2.80;1.10;;;;;;;;;;5050628;28;20467;-68
2021/12/02 14:57:26;;;;;;;2.87;1.57;;;;;;;;;;5052055;28;20452;-69
2021/12/02 14:59:57;;;;;;;2.40;1.40;;;;;;;;;;5052241;28;20418;-69
2021/12/02 15:02:25;;;;;;;2.50;1.07;;;;;;;;;;5052113;28;20923;-70
2021/12/02 15:04:53;;;;;;;2.63;1.30;;;;;;;;;;5051137;28;20917;-71
2021/12/02 15:07:22;;;;;;;3.97;2.03;;;;;;;;;;5033769;28;20464;-74
2021/12/02 15:09:49;;;;;;;5.30;2.13;;;;;;;;;;5050681;28;20464;-75
2021/12/02 15:12:17;;;;;;;2.73;1.60;;;;;;;;;;5053221;28;20520;-73
2021/12/02 15:14:45;;;;;;;4.90;1.90;;;;;;;;;;5052163;28;20529;-72
2021/12/02 15:17:13;;;;;;;3.97;2.00;;;;;;;;;;5053024;28;20523;-72
2021/12/02 15:23:20;;;;;;;2.70;1.50;;;;;;;;;;5055370;28;20489;-72
2021/12/02 15:25:48;;;;;;;4.97;2.40;;;;;;;;;;5042783;28;20473;-71
2021/12/02 15:28:16;;;;;;;3.00;1.80;;;;;;;;;;5051976;28;20500;-70
2021/12/02 15:30:45;;;;;;;4.73;1.70;;;;;;;;;;5023561;28;20435;-70
2021/12/02 15:33:12;;;;;;;2.53;1.63;;;;;;;;;;5051720;28;20509;-72
2021/12/02 15:35:40;;;;;;;5.17;2.83;;;;;;;;;;5050757;28;20425;-71
2021/12/02 15:38:07;;;;;;;3.33;1.30;;;;;;;;;;5035062;28;20789;-72
2021/12/02 15:44:29;;;;;;;2.77;1.53;;;;;;;;;;5053300;28;20483;-72
2021/12/02 15:47:01;;;;;;;6.83;2.63;;;;;;;;;;5051888;28;20425;-70
2021/12/02 15:49:29;;;;;;;4.03;1.73;;;;;;;;;;5049077;28;20441;-71
2021/12/02 15:52:01;;;;;;;4.40;1.77;;;;;;;;;;5053309;28;20417;-71
2021/12/02 15:54:30;;;;;;;1.83;0.90;;;;;;;;;;5052253;28;20760;-70
2021/12/02 15:56:57;;;;;;;3.87;1.50;;;;;;;;;;5052979;28;20434;-70
2021/12/02 15:59:26;;;;;;;3.93;1.83;;;;;;;;;;5051981;28;20421;-69
2021/12/02 16:02:20;;;;;;;4.73;2.07;;;;;;;;;;5044946;28;20430;-68
2021/12/02 16:05:06;;;;;;;5.07;2.37;;;;;;;;;;5036050;28;20426;-69
2021/12/02 16:07:37;;;;;;;3.50;1.73;;;;;;;;;;5049544;28;20457;-70
2021/12/02 16:10:21;;;;;;;3.43;1.83;;;;;;;;;;5035206;28;20912;-70
2021/12/02 16:12:48;;;;;;;4.77;2.53;;;;;;;;;;5051530;28;21062;-70
2021/12/02 16:15:34;;;;;;;5.47;2.40;;;;;;;;;;5052077;28;20436;-69
2021/12/02 16:18:02;;;;;;;7.00;2.17;;;;;;;;;;5049979;28;20800;-68
2021/12/02 16:20:29;;;;;;;4.97;1.83;;;;;;;;;;5050042;28;20487;-68
2021/12/02 16:22:56;;;;;;;4.27;1.60;;;;;;;;;;5030449;28;20437;-67
2021/12/02 16:25:23;;;;;;;2.83;1.20;;;;;;;;;;5048051;28;20425;-69
2021/12/02 16:27:55;;;;;;;3.37;1.70;;;;;;;;;;5050441;28;20498;-68
2021/12/02 16:30:22;;;;;;;4.77;1.70;;;;;;;;;;5050317;28;20440;-69
2021/12/02 16:32:49;;;;;;;4.27;1.90;;;;;;;;;;5051667;28;20440;-69
2021/12/02 16:35:41;;;;;;;4.03;1.80;;;;;;;;;;5052252;28;20927;-70
2021/12/02 16:38:45;;;;;;;9.70;4.30;;;;;;;;;;5052166;28;20464;-67
2021/12/02 16:41:11;;;;;;;6.50;3.10;;;;;;;;;;5047207;28;20783;-68
2021/12/02 16:44:05;;;;;;;3.47;1.97;;;;;;;;;;5033293;28;20586;-68
2021/12/02 16:46:56;;;;;;;5.77;2.77;;;;;;;;;;5049833;28;20441;-68
2021/12/02 16:49:25;;;;;;;6.27;2.40;;;;;;;;;;5048849;28;20456;-68
2021/12/02 16:51:55;;;;;;;6.33;3.23;;;;;;;;;;5033270;28;20417;-69
2021/12/02 16:54:25;;;;;;;44.60;18.00;;;;;;;;;;5047149;28;20413;-69
2021/12/02 16:56:52;;;;;;;4.47;2.00;;;;;;;;;;5032900;28;20483;-71
2021/12/02 16:59:18;;;;;;;19.20;9.47;;;;;;;;;;5050258;28;21009;-70
2021/12/02 17:01:45;;;;;;;8.33;3.60;;;;;;;;;;5018444;28;20409;-69
2021/12/02 17:04:13;;;;;;;7.30;3.80;;;;;;;;;;5051674;28;20920;-69
2021/12/02 17:06:50;;;;;;;6.93;3.30;;;;;;;;;;5052197;28;20424;-71
2021/12/02 17:13:24;;;;;;;4.60;2.20;;;;;;;;;;5052688;28;20404;-70
2021/12/02 17:21:09;;;;;;;3.40;1.67;;;;;;;;;;5053426;28;20815;-70
2021/12/02 17:27:30;;;;;;;5.83;3.40;;;;;;;;;;5053394;28;20736;-70
2021/12/02 17:29:57;;;;;;;4.93;2.83;;;;;;;;;;5048000;28;20438;-72
2021/12/02 17:32:23;;;;;;;1.33;1.00;;;;;;;;;;5033173;28;20969;-72
2021/12/02 17:34:50;;;;;;;24.83;11.30;;;;;;;;;;5015703;28;20774;-73
2021/12/02 17:37:16;;;;;;;24.97;10.63;;;;;;;;;;5033292;28;20472;-72
2021/12/02 17:39:44;;;;;;;23.27;8.33;;;;;;;;;;5032141;28;20840;-75
2021/12/02 17:42:15;;;;;;;21.30;9.63;;;;;;;;;;5016159;28;21016;-74
2021/12/02 17:44:44;;;;;;;9.37;3.70;;;;;;;;;;5016538;28;20877;-74
2021/12/02 17:47:14;;;;;;;15.77;7.37;;;;;;;;;;5032198;28;20434;-74
2021/12/02 17:49:41;;;;;;;8.07;2.50;;;;;;;;;;5032964;28;20414;-73
2021/12/02 17:52:08;;;;;;;9.67;3.27;;;;;;;;;;5016043;28;20437;-72
2021/12/02 17:54:35;;;;;;;8.37;3.57;;;;;;;;;;5015778;28;20453;-73
2021/12/02 17:57:02;;;;;;;7.77;3.37;;;;;;;;;;5019872;28;20421;-76